sensor_id;sensor_type;location;lat;lon;timestamp;P1;durP1;ratioP1;P2;durP2;ratioP2
40286;SDS011;25998;46.604;13.610;2022-12-18T00:00:18;15.60;;;10.20;;
40286;SDS011;25998;46.604;13.610;2022-12-18T00:03:29;13.13;;;9.70;;
40286;SDS011;25998;46.604;13.610;2022-12-18T00:06:39;12.93;;;9.45;;
40286;SDS011;25998;46.604;13.610;2022-12-18T00:09:50;11.68;;;8.82;;
40286;SDS011;25998;46.604;13.610;2022-12-18T00:13:01;14.13;;;9.68;;
40286;SDS011;25998;46.604;13.610;2022-12-18T00:16:13;13.98;;;9.40;;
40286;SDS011;25998;46.604;13.610;2022-12-18T00:19:26;12.73;;;8.52;;
40286;SDS011;25998;46.604;13.610;2022-12-18T00:22:37;12.45;;;9.30;;
40286;SDS011;25998;46.604;13.610;2022-12-18T00:25:47;13.52;;;9.38;;
40286;SDS011;25998;46.604;13.610;2022-12-18T00:28:59;13.32;;;9.35;;
40286;SDS011;25998;46.604;13.610;2022-12-18T00:32:12;12.82;;;9.30;;
40286;SDS011;25998;46.604;13.610;2022-12-18T00:35:22;12.82;;;9.30;;
40286;SDS011;25998;46.604;13.610;2022-12-18T00:38:33;13.25;;;9.23;;
40286;SDS011;25998;46.604;13.610;2022-12-18T00:41:45;13.13;;;9.30;;
40286;SDS011;25998;46.604;13.610;2022-12-18T00:45:14;12.50;;;8.57;;
40286;SDS011;25998;46.604;13.610;2022-12-18T00:48:25;11.90;;;9.13;;
40286;SDS011;25998;46.604;13.610;2022-12-18T00:51:36;12.30;;;9.27;;
40286;SDS011;25998;46.604;13.610;2022-12-18T00:54:46;13.20;;;9.60;;
40286;SDS011;25998;46.604;13.610;2022-12-18T00:57:57;12.82;;;8.82;;
40286;SDS011;25998;46.604;13.610;2022-12-18T01:01:08;11.98;;;8.85;;
40286;SDS011;25998;46.604;13.610;2022-12-18T01:04:19;12.30;;;9.23;;
40286;SDS011;25998;46.604;13.610;2022-12-18T01:07:30;11.48;;;8.82;;
40286;SDS011;25998;46.604;13.610;2022-12-18T01:10:40;11.07;;;8.70;;
40286;SDS011;25998;46.604;13.610;2022-12-18T01:13:52;10.02;;;7.63;;
40286;SDS011;25998;46.604;13.610;2022-12-18T01:17:04;11.73;;;8.45;;
40286;SDS011;25998;46.604;13.610;2022-12-18T01:20:14;10.50;;;7.63;;
40286;SDS011;25998;46.604;13.610;2022-12-18T01:23:25;11.60;;;7.80;;
40286;SDS011;25998;46.604;13.610;2022-12-18T01:26:36;11.85;;;8.90;;
40286;SDS011;25998;46.604;13.610;2022-12-18T01:29:47;10.88;;;8.40;;
40286;SDS011;25998;46.604;13.610;2022-12-18T01:32:59;12.43;;;8.63;;
40286;SDS011;25998;46.604;13.610;2022-12-18T01:36:20;11.98;;;9.32;;
40286;SDS011;25998;46.604;13.610;2022-12-18T01:39:31;11.65;;;9.10;;
40286;SDS011;25998;46.604;13.610;2022-12-18T01:42:42;15.07;;;9.93;;
40286;SDS011;25998;46.604;13.610;2022-12-18T01:45:53;15.77;;;12.00;;
40286;SDS011;25998;46.604;13.610;2022-12-18T01:49:04;14.60;;;9.95;;
40286;SDS011;25998;46.604;13.610;2022-12-18T01:52:15;15.23;;;10.60;;
40286;SDS011;25998;46.604;13.610;2022-12-18T01:55:29;14.43;;;10.48;;
40286;SDS011;25998;46.604;13.610;2022-12-18T01:58:54;13.57;;;10.10;;
40286;SDS011;25998;46.604;13.610;2022-12-18T02:02:06;12.15;;;9.50;;
40286;SDS011;25998;46.604;13.610;2022-12-18T02:12:17;11.52;;;8.95;;
40286;SDS011;25998;46.604;13.610;2022-12-18T02:15:36;10.15;;;7.85;;
40286;SDS011;25998;46.604;13.610;2022-12-18T02:18:48;12.63;;;8.80;;
40286;SDS011;25998;46.604;13.610;2022-12-18T02:29:18;11.45;;;7.97;;
40286;SDS011;25998;46.604;13.610;2022-12-18T02:32:52;11.23;;;8.43;;
40286;SDS011;25998;46.604;13.610;2022-12-18T02:36:06;9.02;;;7.57;;
40286;SDS011;25998;46.604;13.610;2022-12-18T02:39:19;11.38;;;8.20;;
40286;SDS011;25998;46.604;13.610;2022-12-18T02:42:32;11.73;;;7.97;;
40286;SDS011;25998;46.604;13.610;2022-12-18T02:45:46;9.52;;;7.90;;
40286;SDS011;25998;46.604;13.610;2022-12-18T02:49:06;9.23;;;7.13;;
40286;SDS011;25998;46.604;13.610;2022-12-18T02:52:42;10.38;;;7.63;;
40286;SDS011;25998;46.604;13.610;2022-12-18T02:56:07;12.00;;;8.57;;
40286;SDS011;25998;46.604;13.610;2022-12-18T02:59:26;11.52;;;8.25;;
40286;SDS011;25998;46.604;13.610;2022-12-18T03:02:48;8.80;;;7.38;;
40286;SDS011;25998;46.604;13.610;2022-12-18T03:06:31;10.40;;;8.15;;
40286;SDS011;25998;46.604;13.610;2022-12-18T03:09:50;10.75;;;7.22;;
40286;SDS011;25998;46.604;13.610;2022-12-18T03:13:04;10.35;;;7.65;;
40286;SDS011;25998;46.604;13.610;2022-12-18T03:16:24;9.10;;;7.28;;
40286;SDS011;25998;46.604;13.610;2022-12-18T03:19:39;9.98;;;6.82;;
40286;SDS011;25998;46.604;13.610;2022-12-18T03:22:54;9.57;;;7.22;;
40286;SDS011;25998;46.604;13.610;2022-12-18T03:26:12;11.50;;;7.70;;
40286;SDS011;25998;46.604;13.610;2022-12-18T03:29:33;9.75;;;7.13;;
40286;SDS011;25998;46.604;13.610;2022-12-18T03:36:37;9.07;;;6.75;;
40286;SDS011;25998;46.604;13.610;2022-12-18T03:39:48;9.88;;;7.30;;
40286;SDS011;25998;46.604;13.610;2022-12-18T03:43:02;8.75;;;6.85;;
40286;SDS011;25998;46.604;13.610;2022-12-18T03:46:24;10.37;;;7.10;;
40286;SDS011;25998;46.604;13.610;2022-12-18T03:56:44;13.98;;;9.18;;
40286;SDS011;25998;46.604;13.610;2022-12-18T04:00:17;13.43;;;9.95;;
40286;SDS011;25998;46.604;13.610;2022-12-18T04:03:29;14.77;;;10.73;;
40286;SDS011;25998;46.604;13.610;2022-12-18T04:06:42;15.07;;;10.98;;
40286;SDS011;25998;46.604;13.610;2022-12-18T04:09:55;14.80;;;11.05;;
40286;SDS011;25998;46.604;13.610;2022-12-18T04:13:09;16.33;;;11.05;;
40286;SDS011;25998;46.604;13.610;2022-12-18T04:16:20;14.38;;;11.15;;
40286;SDS011;25998;46.604;13.610;2022-12-18T04:19:31;17.50;;;13.13;;
40286;SDS011;25998;46.604;13.610;2022-12-18T04:22:42;23.65;;;17.40;;
40286;SDS011;25998;46.604;13.610;2022-12-18T04:25:52;23.52;;;16.73;;
40286;SDS011;25998;46.604;13.610;2022-12-18T04:29:03;17.35;;;14.00;;
40286;SDS011;25998;46.604;13.610;2022-12-18T04:32:14;15.00;;;10.85;;
40286;SDS011;25998;46.604;13.610;2022-12-18T04:35:25;14.00;;;11.38;;
40286;SDS011;25998;46.604;13.610;2022-12-18T04:38:36;14.85;;;11.65;;
40286;SDS011;25998;46.604;13.610;2022-12-18T04:41:47;15.93;;;11.35;;
40286;SDS011;25998;46.604;13.610;2022-12-18T04:44:57;13.13;;;10.07;;
40286;SDS011;25998;46.604;13.610;2022-12-18T04:48:08;13.60;;;10.45;;
40286;SDS011;25998;46.604;13.610;2022-12-18T04:51:19;14.23;;;10.65;;
40286;SDS011;25998;46.604;13.610;2022-12-18T04:54:30;13.60;;;9.75;;
40286;SDS011;25998;46.604;13.610;2022-12-18T04:57:41;14.65;;;11.13;;
40286;SDS011;25998;46.604;13.610;2022-12-18T05:00:51;14.93;;;10.93;;
40286;SDS011;25998;46.604;13.610;2022-12-18T05:04:02;15.45;;;11.38;;
40286;SDS011;25998;46.604;13.610;2022-12-18T05:07:13;16.17;;;11.70;;
40286;SDS011;25998;46.604;13.610;2022-12-18T05:10:24;15.52;;;10.82;;
40286;SDS011;25998;46.604;13.610;2022-12-18T05:13:35;14.07;;;10.07;;
40286;SDS011;25998;46.604;13.610;2022-12-18T05:16:47;14.50;;;11.10;;
40286;SDS011;25998;46.604;13.610;2022-12-18T05:19:58;13.55;;;10.68;;
40286;SDS011;25998;46.604;13.610;2022-12-18T05:23:09;15.95;;;11.57;;
40286;SDS011;25998;46.604;13.610;2022-12-18T05:26:20;13.70;;;9.55;;
40286;SDS011;25998;46.604;13.610;2022-12-18T05:29:31;14.25;;;10.93;;
40286;SDS011;25998;46.604;13.610;2022-12-18T05:32:42;15.18;;;10.77;;
40286;SDS011;25998;46.604;13.610;2022-12-18T05:35:56;14.25;;;11.70;;
40286;SDS011;25998;46.604;13.610;2022-12-18T05:39:09;15.82;;;10.63;;
40286;SDS011;25998;46.604;13.610;2022-12-18T05:42:20;13.18;;;10.25;;
40286;SDS011;25998;46.604;13.610;2022-12-18T05:45:30;13.68;;;9.98;;
40286;SDS011;25998;46.604;13.610;2022-12-18T05:48:42;14.77;;;10.25;;
40286;SDS011;25998;46.604;13.610;2022-12-18T05:51:53;14.93;;;10.90;;
40286;SDS011;25998;46.604;13.610;2022-12-18T05:55:04;14.73;;;10.70;;
40286;SDS011;25998;46.604;13.610;2022-12-18T05:58:15;15.25;;;10.90;;
40286;SDS011;25998;46.604;13.610;2022-12-18T06:01:26;13.95;;;10.90;;
40286;SDS011;25998;46.604;13.610;2022-12-18T06:04:37;16.52;;;12.20;;
40286;SDS011;25998;46.604;13.610;2022-12-18T06:07:48;15.15;;;11.77;;
40286;SDS011;25998;46.604;13.610;2022-12-18T06:10:59;17.52;;;12.55;;
40286;SDS011;25998;46.604;13.610;2022-12-18T06:14:10;15.75;;;11.55;;
40286;SDS011;25998;46.604;13.610;2022-12-18T06:17:20;16.73;;;13.27;;
40286;SDS011;25998;46.604;13.610;2022-12-18T06:20:31;15.50;;;13.13;;
40286;SDS011;25998;46.604;13.610;2022-12-18T06:23:42;15.15;;;12.07;;
40286;SDS011;25998;46.604;13.610;2022-12-18T06:26:53;15.20;;;11.35;;
40286;SDS011;25998;46.604;13.610;2022-12-18T06:30:04;15.60;;;11.32;;
40286;SDS011;25998;46.604;13.610;2022-12-18T06:33:16;16.40;;;11.90;;
40286;SDS011;25998;46.604;13.610;2022-12-18T06:36:27;15.63;;;11.48;;
40286;SDS011;25998;46.604;13.610;2022-12-18T06:39:39;15.57;;;11.27;;
40286;SDS011;25998;46.604;13.610;2022-12-18T06:42:50;14.80;;;11.65;;
40286;SDS011;25998;46.604;13.610;2022-12-18T06:46:01;18.58;;;12.00;;
40286;SDS011;25998;46.604;13.610;2022-12-18T06:49:13;15.93;;;11.68;;
40286;SDS011;25998;46.604;13.610;2022-12-18T06:52:23;33.20;;;26.77;;
40286;SDS011;25998;46.604;13.610;2022-12-18T06:55:34;18.08;;;13.20;;
40286;SDS011;25998;46.604;13.610;2022-12-18T06:58:45;16.85;;;12.57;;
40286;SDS011;25998;46.604;13.610;2022-12-18T07:01:56;19.83;;;12.80;;
40286;SDS011;25998;46.604;13.610;2022-12-18T07:05:07;18.38;;;14.05;;
40286;SDS011;25998;46.604;13.610;2022-12-18T07:08:18;19.10;;;14.52;;
40286;SDS011;25998;46.604;13.610;2022-12-18T07:11:28;18.70;;;14.40;;
40286;SDS011;25998;46.604;13.610;2022-12-18T07:14:39;14.93;;;12.00;;
40286;SDS011;25998;46.604;13.610;2022-12-18T07:17:50;16.58;;;11.77;;
40286;SDS011;25998;46.604;13.610;2022-12-18T07:21:05;18.35;;;13.57;;
40286;SDS011;25998;46.604;13.610;2022-12-18T07:24:16;20.88;;;16.08;;
40286;SDS011;25998;46.604;13.610;2022-12-18T07:27:27;65.05;;;44.33;;
40286;SDS011;25998;46.604;13.610;2022-12-18T07:30:38;34.13;;;25.55;;
40286;SDS011;25998;46.604;13.610;2022-12-18T07:33:49;63.67;;;47.20;;
40286;SDS011;25998;46.604;13.610;2022-12-18T07:37:01;23.92;;;16.95;;
40286;SDS011;25998;46.604;13.610;2022-12-18T07:40:12;21.40;;;16.63;;
40286;SDS011;25998;46.604;13.610;2022-12-18T07:43:23;24.85;;;16.58;;
40286;SDS011;25998;46.604;13.610;2022-12-18T07:46:34;45.13;;;32.75;;
40286;SDS011;25998;46.604;13.610;2022-12-18T07:49:45;41.50;;;31.35;;
40286;SDS011;25998;46.604;13.610;2022-12-18T07:52:56;33.92;;;25.75;;
40286;SDS011;25998;46.604;13.610;2022-12-18T07:56:10;53.35;;;39.83;;
40286;SDS011;25998;46.604;13.610;2022-12-18T07:59:22;28.60;;;21.98;;
40286;SDS011;25998;46.604;13.610;2022-12-18T08:02:33;34.15;;;26.10;;
40286;SDS011;25998;46.604;13.610;2022-12-18T08:05:43;31.90;;;25.33;;
40286;SDS011;25998;46.604;13.610;2022-12-18T08:08:55;28.27;;;20.77;;
40286;SDS011;25998;46.604;13.610;2022-12-18T08:12:07;27.73;;;21.27;;
40286;SDS011;25998;46.604;13.610;2022-12-18T08:15:17;27.52;;;21.23;;
40286;SDS011;25998;46.604;13.610;2022-12-18T08:18:29;34.75;;;21.27;;
40286;SDS011;25998;46.604;13.610;2022-12-18T08:21:41;26.23;;;20.70;;
40286;SDS011;25998;46.604;13.610;2022-12-18T08:24:52;27.35;;;20.60;;
40286;SDS011;25998;46.604;13.610;2022-12-18T08:28:03;25.35;;;19.60;;
40286;SDS011;25998;46.604;13.610;2022-12-18T08:31:13;29.38;;;21.42;;
40286;SDS011;25998;46.604;13.610;2022-12-18T08:34:24;27.80;;;20.95;;
40286;SDS011;25998;46.604;13.610;2022-12-18T08:37:35;27.63;;;21.30;;
40286;SDS011;25998;46.604;13.610;2022-12-18T08:40:46;25.35;;;19.33;;
40286;SDS011;25998;46.604;13.610;2022-12-18T08:43:57;26.38;;;19.70;;
40286;SDS011;25998;46.604;13.610;2022-12-18T08:47:26;26.98;;;20.77;;
40286;SDS011;25998;46.604;13.610;2022-12-18T08:50:37;29.75;;;23.35;;
40286;SDS011;25998;46.604;13.610;2022-12-18T08:53:48;31.08;;;22.55;;
40286;SDS011;25998;46.604;13.610;2022-12-18T08:56:59;26.60;;;21.60;;
40286;SDS011;25998;46.604;13.610;2022-12-18T09:00:10;26.15;;;20.83;;
40286;SDS011;25998;46.604;13.610;2022-12-18T09:03:23;29.23;;;22.52;;
40286;SDS011;25998;46.604;13.610;2022-12-18T09:06:34;24.48;;;20.13;;
40286;SDS011;25998;46.604;13.610;2022-12-18T09:09:44;25.08;;;18.52;;
40286;SDS011;25998;46.604;13.610;2022-12-18T09:12:57;20.30;;;16.63;;
40286;SDS011;25998;46.604;13.610;2022-12-18T09:16:08;22.52;;;17.85;;
40286;SDS011;25998;46.604;13.610;2022-12-18T09:19:18;23.10;;;18.33;;
40286;SDS011;25998;46.604;13.610;2022-12-18T09:22:29;25.10;;;18.90;;
40286;SDS011;25998;46.604;13.610;2022-12-18T09:25:41;22.45;;;18.42;;
40286;SDS011;25998;46.604;13.610;2022-12-18T09:28:52;23.63;;;17.42;;
40286;SDS011;25998;46.604;13.610;2022-12-18T09:32:03;21.25;;;17.38;;
40286;SDS011;25998;46.604;13.610;2022-12-18T09:35:14;19.92;;;16.75;;
40286;SDS011;25998;46.604;13.610;2022-12-18T09:38:25;23.85;;;17.70;;
40286;SDS011;25998;46.604;13.610;2022-12-18T09:41:40;18.33;;;15.23;;
40286;SDS011;25998;46.604;13.610;2022-12-18T09:44:53;21.02;;;15.60;;
40286;SDS011;25998;46.604;13.610;2022-12-18T09:48:04;18.90;;;15.05;;
40286;SDS011;25998;46.604;13.610;2022-12-18T09:51:55;20.23;;;15.57;;
40286;SDS011;25998;46.604;13.610;2022-12-18T09:55:05;20.55;;;15.90;;
40286;SDS011;25998;46.604;13.610;2022-12-18T09:58:26;18.77;;;15.57;;
40286;SDS011;25998;46.604;13.610;2022-12-18T10:01:44;21.27;;;16.38;;
40286;SDS011;25998;46.604;13.610;2022-12-18T10:05:03;25.95;;;18.50;;
40286;SDS011;25998;46.604;13.610;2022-12-18T10:18:39;23.15;;;15.40;;
40286;SDS011;25998;46.604;13.610;2022-12-18T10:29:27;21.27;;;14.93;;
40286;SDS011;25998;46.604;13.610;2022-12-18T10:32:38;22.70;;;16.88;;
40286;SDS011;25998;46.604;13.610;2022-12-18T10:35:52;23.75;;;15.32;;
40286;SDS011;25998;46.604;13.610;2022-12-18T10:42:32;22.60;;;16.80;;
40286;SDS011;25998;46.604;13.610;2022-12-18T10:45:43;19.05;;;15.35;;
40286;SDS011;25998;46.604;13.610;2022-12-18T10:49:34;17.95;;;13.23;;
40286;SDS011;25998;46.604;13.610;2022-12-18T10:52:52;18.35;;;14.23;;
40286;SDS011;25998;46.604;13.610;2022-12-18T10:56:07;19.23;;;14.65;;
40286;SDS011;25998;46.604;13.610;2022-12-18T10:59:18;17.63;;;13.70;;
40286;SDS011;25998;46.604;13.610;2022-12-18T11:02:38;16.27;;;11.80;;
40286;SDS011;25998;46.604;13.610;2022-12-18T11:05:49;13.90;;;10.73;;
40286;SDS011;25998;46.604;13.610;2022-12-18T11:09:38;13.55;;;11.10;;
40286;SDS011;25998;46.604;13.610;2022-12-18T11:12:50;16.67;;;12.75;;
40286;SDS011;25998;46.604;13.610;2022-12-18T11:16:02;17.13;;;12.93;;
40286;SDS011;25998;46.604;13.610;2022-12-18T11:22:34;15.77;;;11.57;;
40286;SDS011;25998;46.604;13.610;2022-12-18T11:25:54;15.38;;;11.48;;
40286;SDS011;25998;46.604;13.610;2022-12-18T11:29:10;14.68;;;11.00;;
40286;SDS011;25998;46.604;13.610;2022-12-18T11:32:29;14.38;;;10.82;;
40286;SDS011;25998;46.604;13.610;2022-12-18T11:39:09;17.65;;;12.70;;
40286;SDS011;25998;46.604;13.610;2022-12-18T11:49:34;16.17;;;13.27;;
40286;SDS011;25998;46.604;13.610;2022-12-18T11:52:46;16.95;;;14.25;;
40286;SDS011;25998;46.604;13.610;2022-12-18T12:07:35;15.83;;;13.23;;
40286;SDS011;25998;46.604;13.610;2022-12-18T12:38:17;18.15;;;14.68;;
40286;SDS011;25998;46.604;13.610;2022-12-18T12:41:35;18.27;;;13.93;;
40286;SDS011;25998;46.604;13.610;2022-12-18T12:45:06;19.17;;;14.55;;
40286;SDS011;25998;46.604;13.610;2022-12-18T12:48:33;17.60;;;14.52;;
40286;SDS011;25998;46.604;13.610;2022-12-18T12:52:07;20.13;;;15.93;;
40286;SDS011;25998;46.604;13.610;2022-12-18T12:55:38;18.85;;;14.68;;
40286;SDS011;25998;46.604;13.610;2022-12-18T13:02:27;19.35;;;16.05;;
40286;SDS011;25998;46.604;13.610;2022-12-18T13:05:46;17.02;;;14.38;;
40286;SDS011;25998;46.604;13.610;2022-12-18T13:09:06;18.17;;;14.85;;
40286;SDS011;25998;46.604;13.610;2022-12-18T13:12:17;16.85;;;13.93;;
40286;SDS011;25998;46.604;13.610;2022-12-18T13:15:47;14.80;;;12.43;;
40286;SDS011;25998;46.604;13.610;2022-12-18T13:19:20;17.88;;;13.90;;
40286;SDS011;25998;46.604;13.610;2022-12-18T13:22:40;18.70;;;14.43;;
40286;SDS011;25998;46.604;13.610;2022-12-18T13:29:54;19.65;;;14.68;;
40286;SDS011;25998;46.604;13.610;2022-12-18T13:36:28;13.40;;;11.88;;
40286;SDS011;25998;46.604;13.610;2022-12-18T13:39:41;16.75;;;13.02;;
40286;SDS011;25998;46.604;13.610;2022-12-18T13:42:51;15.82;;;12.90;;
40286;SDS011;25998;46.604;13.610;2022-12-18T13:46:47;16.10;;;12.55;;
40286;SDS011;25998;46.604;13.610;2022-12-18T13:50:00;14.25;;;10.43;;
40286;SDS011;25998;46.604;13.610;2022-12-18T13:53:23;14.07;;;11.90;;
40286;SDS011;25998;46.604;13.610;2022-12-18T13:56:42;15.85;;;12.85;;
40286;SDS011;25998;46.604;13.610;2022-12-18T13:59:55;17.10;;;13.55;;
40286;SDS011;25998;46.604;13.610;2022-12-18T14:03:16;16.65;;;12.98;;
40286;SDS011;25998;46.604;13.610;2022-12-18T14:06:29;17.20;;;13.38;;
40286;SDS011;25998;46.604;13.610;2022-12-18T14:09:42;20.23;;;12.85;;
40286;SDS011;25998;46.604;13.610;2022-12-18T14:13:05;16.55;;;13.43;;
40286;SDS011;25998;46.604;13.610;2022-12-18T14:16:18;15.35;;;12.35;;
40286;SDS011;25998;46.604;13.610;2022-12-18T14:19:30;16.10;;;13.55;;
40286;SDS011;25998;46.604;13.610;2022-12-18T14:22:43;15.50;;;12.50;;
40286;SDS011;25998;46.604;13.610;2022-12-18T14:25:56;16.05;;;12.02;;
40286;SDS011;25998;46.604;13.610;2022-12-18T14:29:26;14.40;;;12.68;;
40286;SDS011;25998;46.604;13.610;2022-12-18T14:32:39;14.65;;;11.27;;
40286;SDS011;25998;46.604;13.610;2022-12-18T14:39:05;13.52;;;10.80;;
40286;SDS011;25998;46.604;13.610;2022-12-18T14:42:27;14.50;;;11.23;;
40286;SDS011;25998;46.604;13.610;2022-12-18T14:45:39;15.60;;;11.65;;
40286;SDS011;25998;46.604;13.610;2022-12-18T14:48:52;14.30;;;11.70;;
40286;SDS011;25998;46.604;13.610;2022-12-18T14:52:05;12.68;;;10.50;;
40286;SDS011;25998;46.604;13.610;2022-12-18T14:55:26;13.63;;;11.25;;
40286;SDS011;25998;46.604;13.610;2022-12-18T14:58:36;12.70;;;10.65;;
40286;SDS011;25998;46.604;13.610;2022-12-18T15:08:36;13.82;;;11.05;;
40286;SDS011;25998;46.604;13.610;2022-12-18T15:11:47;13.48;;;11.18;;
40286;SDS011;25998;46.604;13.610;2022-12-18T15:14:58;13.98;;;10.90;;
40286;SDS011;25998;46.604;13.610;2022-12-18T15:21:22;12.20;;;9.63;;
40286;SDS011;25998;46.604;13.610;2022-12-18T15:24:33;13.18;;;10.18;;
40286;SDS011;25998;46.604;13.610;2022-12-18T15:27:45;13.23;;;10.07;;
40286;SDS011;25998;46.604;13.610;2022-12-18T15:30:58;12.25;;;9.95;;
40286;SDS011;25998;46.604;13.610;2022-12-18T15:34:24;12.07;;;9.57;;
40286;SDS011;25998;46.604;13.610;2022-12-18T15:37:36;12.93;;;10.57;;
40286;SDS011;25998;46.604;13.610;2022-12-18T15:40:47;13.45;;;9.98;;
40286;SDS011;25998;46.604;13.610;2022-12-18T15:43:58;19.00;;;12.13;;
40286;SDS011;25998;46.604;13.610;2022-12-18T15:47:10;14.15;;;10.65;;
40286;SDS011;25998;46.604;13.610;2022-12-18T15:50:22;12.63;;;9.90;;
40286;SDS011;25998;46.604;13.610;2022-12-18T15:53:33;10.23;;;8.55;;
40286;SDS011;25998;46.604;13.610;2022-12-18T15:56:44;10.82;;;8.82;;
40286;SDS011;25998;46.604;13.610;2022-12-18T16:00:13;10.82;;;8.60;;
40286;SDS011;25998;46.604;13.610;2022-12-18T16:03:24;11.45;;;9.10;;
40286;SDS011;25998;46.604;13.610;2022-12-18T16:06:35;10.98;;;9.10;;
40286;SDS011;25998;46.604;13.610;2022-12-18T16:09:46;10.93;;;9.45;;
40286;SDS011;25998;46.604;13.610;2022-12-18T16:12:57;10.25;;;8.60;;
40286;SDS011;25998;46.604;13.610;2022-12-18T16:16:08;10.82;;;8.77;;
40286;SDS011;25998;46.604;13.610;2022-12-18T16:19:19;13.57;;;9.63;;
40286;SDS011;25998;46.604;13.610;2022-12-18T16:22:31;11.70;;;9.38;;
40286;SDS011;25998;46.604;13.610;2022-12-18T16:25:42;11.63;;;8.90;;
40286;SDS011;25998;46.604;13.610;2022-12-18T16:28:53;12.50;;;9.25;;
40286;SDS011;25998;46.604;13.610;2022-12-18T16:32:03;9.60;;;8.48;;
40286;SDS011;25998;46.604;13.610;2022-12-18T16:35:15;12.82;;;9.80;;
40286;SDS011;25998;46.604;13.610;2022-12-18T16:38:26;11.82;;;8.93;;
40286;SDS011;25998;46.604;13.610;2022-12-18T16:41:37;11.57;;;9.30;;
40286;SDS011;25998;46.604;13.610;2022-12-18T16:44:48;11.90;;;9.38;;
40286;SDS011;25998;46.604;13.610;2022-12-18T16:47:59;10.75;;;8.82;;
40286;SDS011;25998;46.604;13.610;2022-12-18T16:51:10;12.10;;;10.52;;
40286;SDS011;25998;46.604;13.610;2022-12-18T16:54:21;13.70;;;10.00;;
40286;SDS011;25998;46.604;13.610;2022-12-18T16:57:32;13.13;;;9.15;;
40286;SDS011;25998;46.604;13.610;2022-12-18T17:00:43;10.23;;;8.43;;
40286;SDS011;25998;46.604;13.610;2022-12-18T17:03:55;11.25;;;9.27;;
40286;SDS011;25998;46.604;13.610;2022-12-18T17:07:10;11.00;;;9.10;;
40286;SDS011;25998;46.604;13.610;2022-12-18T17:10:21;12.50;;;9.20;;
40286;SDS011;25998;46.604;13.610;2022-12-18T17:13:32;11.50;;;8.85;;
40286;SDS011;25998;46.604;13.610;2022-12-18T17:16:44;10.45;;;8.10;;
40286;SDS011;25998;46.604;13.610;2022-12-18T17:19:55;11.50;;;8.90;;
40286;SDS011;25998;46.604;13.610;2022-12-18T17:23:06;10.43;;;8.98;;
40286;SDS011;25998;46.604;13.610;2022-12-18T17:26:17;10.60;;;7.88;;
40286;SDS011;25998;46.604;13.610;2022-12-18T17:29:28;9.80;;;8.25;;
40286;SDS011;25998;46.604;13.610;2022-12-18T17:32:39;10.45;;;8.38;;
40286;SDS011;25998;46.604;13.610;2022-12-18T17:35:49;9.27;;;8.15;;
40286;SDS011;25998;46.604;13.610;2022-12-18T17:39:01;9.30;;;7.90;;
40286;SDS011;25998;46.604;13.610;2022-12-18T17:42:13;10.32;;;8.38;;
40286;SDS011;25998;46.604;13.610;2022-12-18T17:45:24;10.90;;;8.70;;
40286;SDS011;25998;46.604;13.610;2022-12-18T17:48:35;11.95;;;8.98;;
40286;SDS011;25998;46.604;13.610;2022-12-18T17:51:46;10.32;;;9.13;;
40286;SDS011;25998;46.604;13.610;2022-12-18T17:54:58;9.75;;;8.13;;
40286;SDS011;25998;46.604;13.610;2022-12-18T17:58:08;9.88;;;8.18;;
40286;SDS011;25998;46.604;13.610;2022-12-18T18:01:20;10.27;;;8.77;;
40286;SDS011;25998;46.604;13.610;2022-12-18T18:04:33;10.45;;;8.85;;
40286;SDS011;25998;46.604;13.610;2022-12-18T18:07:44;9.18;;;7.93;;
40286;SDS011;25998;46.604;13.610;2022-12-18T18:10:55;10.55;;;8.35;;
40286;SDS011;25998;46.604;13.610;2022-12-18T18:14:25;11.35;;;7.70;;
40286;SDS011;25998;46.604;13.610;2022-12-18T18:17:36;9.23;;;7.55;;
40286;SDS011;25998;46.604;13.610;2022-12-18T18:20:47;9.55;;;7.53;;
40286;SDS011;25998;46.604;13.610;2022-12-18T18:24:01;9.57;;;7.45;;
40286;SDS011;25998;46.604;13.610;2022-12-18T18:27:13;9.65;;;8.25;;
40286;SDS011;25998;46.604;13.610;2022-12-18T18:30:24;10.82;;;9.00;;
40286;SDS011;25998;46.604;13.610;2022-12-18T18:33:35;10.93;;;8.75;;
40286;SDS011;25998;46.604;13.610;2022-12-18T18:36:46;11.32;;;9.68;;
40286;SDS011;25998;46.604;13.610;2022-12-18T18:39:56;9.57;;;7.90;;
40286;SDS011;25998;46.604;13.610;2022-12-18T18:43:07;9.38;;;7.63;;
40286;SDS011;25998;46.604;13.610;2022-12-18T18:46:18;9.45;;;8.20;;
40286;SDS011;25998;46.604;13.610;2022-12-18T18:49:29;8.48;;;7.45;;
40286;SDS011;25998;46.604;13.610;2022-12-18T18:52:42;9.68;;;8.15;;
40286;SDS011;25998;46.604;13.610;2022-12-18T18:55:55;10.25;;;7.85;;
40286;SDS011;25998;46.604;13.610;2022-12-18T18:59:07;9.20;;;7.70;;
40286;SDS011;25998;46.604;13.610;2022-12-18T19:02:18;9.68;;;7.63;;
40286;SDS011;25998;46.604;13.610;2022-12-18T19:05:32;8.90;;;7.82;;
40286;SDS011;25998;46.604;13.610;2022-12-18T19:08:43;9.27;;;7.70;;
40286;SDS011;25998;46.604;13.610;2022-12-18T19:11:55;11.63;;;9.43;;
40286;SDS011;25998;46.604;13.610;2022-12-18T19:15:25;9.40;;;8.35;;
40286;SDS011;25998;46.604;13.610;2022-12-18T19:18:36;9.43;;;8.18;;
40286;SDS011;25998;46.604;13.610;2022-12-18T19:21:47;10.38;;;8.90;;
40286;SDS011;25998;46.604;13.610;2022-12-18T19:24:59;11.32;;;9.35;;
40286;SDS011;25998;46.604;13.610;2022-12-18T19:28:09;11.52;;;9.63;;
40286;SDS011;25998;46.604;13.610;2022-12-18T19:31:20;12.80;;;10.00;;
40286;SDS011;25998;46.604;13.610;2022-12-18T19:34:32;12.48;;;8.98;;
40286;SDS011;25998;46.604;13.610;2022-12-18T19:37:43;12.57;;;10.23;;
40286;SDS011;25998;46.604;13.610;2022-12-18T19:40:54;11.07;;;9.02;;
40286;SDS011;25998;46.604;13.610;2022-12-18T19:44:05;11.98;;;8.85;;
40286;SDS011;25998;46.604;13.610;2022-12-18T19:47:16;10.38;;;8.23;;
40286;SDS011;25998;46.604;13.610;2022-12-18T19:50:27;11.55;;;9.32;;
40286;SDS011;25998;46.604;13.610;2022-12-18T19:53:38;11.15;;;8.48;;
40286;SDS011;25998;46.604;13.610;2022-12-18T19:56:49;13.07;;;8.88;;
40286;SDS011;25998;46.604;13.610;2022-12-18T20:00:02;10.40;;;9.07;;
40286;SDS011;25998;46.604;13.610;2022-12-18T20:03:14;10.80;;;9.63;;
40286;SDS011;25998;46.604;13.610;2022-12-18T20:06:27;11.38;;;9.15;;
40286;SDS011;25998;46.604;13.610;2022-12-18T20:09:37;11.18;;;9.18;;
40286;SDS011;25998;46.604;13.610;2022-12-18T20:12:49;10.07;;;8.77;;
40286;SDS011;25998;46.604;13.610;2022-12-18T20:15:59;9.60;;;8.07;;
40286;SDS011;25998;46.604;13.610;2022-12-18T20:19:11;10.15;;;8.50;;
40286;SDS011;25998;46.604;13.610;2022-12-18T20:22:22;9.60;;;7.97;;
40286;SDS011;25998;46.604;13.610;2022-12-18T20:25:33;11.48;;;9.02;;
40286;SDS011;25998;46.604;13.610;2022-12-18T20:28:43;10.63;;;8.30;;
40286;SDS011;25998;46.604;13.610;2022-12-18T20:31:54;11.05;;;8.18;;
40286;SDS011;25998;46.604;13.610;2022-12-18T20:35:05;10.55;;;8.65;;
40286;SDS011;25998;46.604;13.610;2022-12-18T20:38:16;9.70;;;7.60;;
40286;SDS011;25998;46.604;13.610;2022-12-18T20:41:27;9.82;;;7.68;;
40286;SDS011;25998;46.604;13.610;2022-12-18T20:44:38;9.88;;;8.25;;
40286;SDS011;25998;46.604;13.610;2022-12-18T20:47:49;9.75;;;8.10;;